sensor_id;sensor_type;location;lat;lon;timestamp;temperature;humidity
10451;DHT22;5273;51.290;6.918;2023-07-13T00:02:05;18.40;69.60
10451;DHT22;5273;51.290;6.918;2023-07-13T00:04:32;18.40;69.70
10451;DHT22;5273;51.290;6.918;2023-07-13T00:06:59;18.30;69.80
10451;DHT22;5273;51.290;6.918;2023-07-13T00:09:26;18.30;70.20
10451;DHT22;5273;51.290;6.918;2023-07-13T00:11:56;18.30;70.50
10451;DHT22;5273;51.290;6.918;2023-07-13T00:14:24;18.20;70.70
10451;DHT22;5273;51.290;6.918;2023-07-13T00:16:51;18.20;71.00
10451;DHT22;5273;51.290;6.918;2023-07-13T00:19:19;18.20;71.20
10451;DHT22;5273;51.290;6.918;2023-07-13T00:21:46;18.10;71.30
10451;DHT22;5273;51.290;6.918;2023-07-13T00:24:15;18.10;71.50
10451;DHT22;5273;51.290;6.918;2023-07-13T00:26:44;18.10;71.30
10451;DHT22;5273;51.290;6.918;2023-07-13T00:29:11;18.10;71.40
10451;DHT22;5273;51.290;6.918;2023-07-13T00:31:38;18.10;71.50
10451;DHT22;5273;51.290;6.918;2023-07-13T00:34:05;18.10;71.90
10451;DHT22;5273;51.290;6.918;2023-07-13T00:36:33;18.00;72.50
10451;DHT22;5273;51.290;6.918;2023-07-13T00:39:00;18.00;73.00
10451;DHT22;5273;51.290;6.918;2023-07-13T00:41:26;17.80;73.30
10451;DHT22;5273;51.290;6.918;2023-07-13T00:43:53;17.80;73.60
10451;DHT22;5273;51.290;6.918;2023-07-13T00:46:23;17.70;73.50
10451;DHT22;5273;51.290;6.918;2023-07-13T00:48:51;17.60;74.00
10451;DHT22;5273;51.290;6.918;2023-07-13T00:51:25;17.60;74.50
10451;DHT22;5273;51.290;6.918;2023-07-13T00:53:57;17.50;74.60
10451;DHT22;5273;51.290;6.918;2023-07-13T00:56:25;17.50;74.70
10451;DHT22;5273;51.290;6.918;2023-07-13T00:58:53;17.40;75.00
10451;DHT22;5273;51.290;6.918;2023-07-13T01:01:20;17.40;75.50
10451;DHT22;5273;51.290;6.918;2023-07-13T01:03:47;17.30;75.60
10451;DHT22;5273;51.290;6.918;2023-07-13T01:06:14;17.30;76.00
10451;DHT22;5273;51.290;6.918;2023-07-13T01:08:43;17.20;76.10
10451;DHT22;5273;51.290;6.918;2023-07-13T01:11:11;17.20;76.60
10451;DHT22;5273;51.290;6.918;2023-07-13T01:13:38;17.10;76.80
10451;DHT22;5273;51.290;6.918;2023-07-13T01:16:13;17.00;77.00
10451;DHT22;5273;51.290;6.918;2023-07-13T01:18:40;17.00;77.20
10451;DHT22;5273;51.290;6.918;2023-07-13T01:21:09;17.00;77.50
10451;DHT22;5273;51.290;6.918;2023-07-13T01:23:36;17.00;77.80
10451;DHT22;5273;51.290;6.918;2023-07-13T01:26:02;17.00;78.20
10451;DHT22;5273;51.290;6.918;2023-07-13T01:28:29;16.90;78.40
10451;DHT22;5273;51.290;6.918;2023-07-13T01:30:58;16.80;78.40
10451;DHT22;5273;51.290;6.918;2023-07-13T01:33:25;16.80;78.80
10451;DHT22;5273;51.290;6.918;2023-07-13T01:35:52;16.80;79.10
10451;DHT22;5273;51.290;6.918;2023-07-13T01:38:22;16.70;79.40
10451;DHT22;5273;51.290;6.918;2023-07-13T01:40:50;16.70;80.00
10451;DHT22;5273;51.290;6.918;2023-07-13T01:43:17;16.60;80.40
10451;DHT22;5273;51.290;6.918;2023-07-13T01:45:44;16.60;80.70
10451;DHT22;5273;51.290;6.918;2023-07-13T01:48:11;16.70;81.20
10451;DHT22;5273;51.290;6.918;2023-07-13T01:50:38;16.60;81.10
10451;DHT22;5273;51.290;6.918;2023-07-13T01:53:05;16.50;81.70
10451;DHT22;5273;51.290;6.918;2023-07-13T01:55:34;16.50;81.90
10451;DHT22;5273;51.290;6.918;2023-07-13T01:58:01;16.50;82.40
10451;DHT22;5273;51.290;6.918;2023-07-13T02:00:28;16.50;82.80
10451;DHT22;5273;51.290;6.918;2023-07-13T02:02:55;16.40;83.20
10451;DHT22;5273;51.290;6.918;2023-07-13T02:05:22;16.40;83.50
10451;DHT22;5273;51.290;6.918;2023-07-13T02:07:49;16.40;83.90
10451;DHT22;5273;51.290;6.918;2023-07-13T02:10:16;16.30;84.50
10451;DHT22;5273;51.290;6.918;2023-07-13T02:12:44;16.30;84.70
10451;DHT22;5273;51.290;6.918;2023-07-13T02:15:11;16.80;86.00
10451;DHT22;5273;51.290;6.918;2023-07-13T02:17:38;16.20;85.80
10451;DHT22;5273;51.290;6.918;2023-07-13T02:20:06;16.20;86.20
10451;DHT22;5273;51.290;6.918;2023-07-13T02:22:33;16.20;86.50
10451;DHT22;5273;51.290;6.918;2023-07-13T02:25:00;16.20;86.80
10451;DHT22;5273;51.290;6.918;2023-07-13T02:27:27;16.10;87.00
10451;DHT22;5273;51.290;6.918;2023-07-13T02:29:55;16.10;87.30
10451;DHT22;5273;51.290;6.918;2023-07-13T02:32:22;16.20;87.70
10451;DHT22;5273;51.290;6.918;2023-07-13T02:34:50;16.20;88.10
10451;DHT22;5273;51.290;6.918;2023-07-13T02:37:17;16.10;88.20
10451;DHT22;5273;51.290;6.918;2023-07-13T02:39:44;16.10;88.50
10451;DHT22;5273;51.290;6.918;2023-07-13T02:42:11;16.10;89.00
10451;DHT22;5273;51.290;6.918;2023-07-13T02:44:37;16.10;89.30
10451;DHT22;5273;51.290;6.918;2023-07-13T02:47:06;16.10;89.70
10451;DHT22;5273;51.290;6.918;2023-07-13T02:49:33;16.00;90.00
10451;DHT22;5273;51.290;6.918;2023-07-13T02:51:59;16.00;90.30
10451;DHT22;5273;51.290;6.918;2023-07-13T02:54:26;16.00;90.60
10451;DHT22;5273;51.290;6.918;2023-07-13T02:56:53;16.10;90.90
10451;DHT22;5273;51.290;6.918;2023-07-13T02:59:20;15.90;91.00
10451;DHT22;5273;51.290;6.918;2023-07-13T03:01:47;15.90;91.20
10451;DHT22;5273;51.290;6.918;2023-07-13T03:04:15;15.90;91.40
10451;DHT22;5273;51.290;6.918;2023-07-13T03:06:45;15.90;91.60
10451;DHT22;5273;51.290;6.918;2023-07-13T03:09:12;15.90;91.70
10451;DHT22;5273;51.290;6.918;2023-07-13T03:11:39;15.80;91.90
10451;DHT22;5273;51.290;6.918;2023-07-13T03:14:06;15.80;92.10
10451;DHT22;5273;51.290;6.918;2023-07-13T03:16:33;15.80;92.30
10451;DHT22;5273;51.290;6.918;2023-07-13T03:19:00;15.70;92.70
10451;DHT22;5273;51.290;6.918;2023-07-13T03:21:28;15.70;93.00
10451;DHT22;5273;51.290;6.918;2023-07-13T03:23:55;15.70;93.30
10451;DHT22;5273;51.290;6.918;2023-07-13T03:26:22;15.60;93.60
10451;DHT22;5273;51.290;6.918;2023-07-13T03:28:49;15.60;93.90
10451;DHT22;5273;51.290;6.918;2023-07-13T03:31:17;15.50;94.20
10451;DHT22;5273;51.290;6.918;2023-07-13T03:33:44;15.50;94.40
10451;DHT22;5273;51.290;6.918;2023-07-13T03:36:14;15.50;94.80
10451;DHT22;5273;51.290;6.918;2023-07-13T03:38:43;15.50;95.10
10451;DHT22;5273;51.290;6.918;2023-07-13T03:41:09;15.50;95.40
10451;DHT22;5273;51.290;6.918;2023-07-13T03:43:36;15.50;95.70
10451;DHT22;5273;51.290;6.918;2023-07-13T03:46:03;15.40;95.80
10451;DHT22;5273;51.290;6.918;2023-07-13T03:48:30;15.30;96.40
10451;DHT22;5273;51.290;6.918;2023-07-13T03:50:56;15.40;96.40
10451;DHT22;5273;51.290;6.918;2023-07-13T03:53:23;15.40;96.60
10451;DHT22;5273;51.290;6.918;2023-07-13T03:55:51;15.40;96.70
10451;DHT22;5273;51.290;6.918;2023-07-13T03:58:28;15.40;96.90
10451;DHT22;5273;51.290;6.918;2023-07-13T04:00:56;15.50;97.00
10451;DHT22;5273;51.290;6.918;2023-07-13T04:03:24;15.50;97.20
10451;DHT22;5273;51.290;6.918;2023-07-13T04:05:50;15.10;97.20
10451;DHT22;5273;51.290;6.918;2023-07-13T04:08:17;15.50;97.60
10451;DHT22;5273;51.290;6.918;2023-07-13T04:10:44;15.50;97.60
10451;DHT22;5273;51.290;6.918;2023-07-13T04:13:12;15.60;97.80
10451;DHT22;5273;51.290;6.918;2023-07-13T04:15:40;15.60;97.90
10451;DHT22;5273;51.290;6.918;2023-07-13T04:18:07;15.70;98.00
10451;DHT22;5273;51.290;6.918;2023-07-13T04:20:34;15.70;97.80
10451;DHT22;5273;51.290;6.918;2023-07-13T04:23:01;15.90;97.90
10451;DHT22;5273;51.290;6.918;2023-07-13T04:25:28;15.90;98.00
10451;DHT22;5273;51.290;6.918;2023-07-13T04:27:55;15.90;98.00
10451;DHT22;5273;51.290;6.918;2023-07-13T04:30:23;16.10;98.00
10451;DHT22;5273;51.290;6.918;2023-07-13T04:32:51;16.00;97.70
10451;DHT22;5273;51.290;6.918;2023-07-13T04:35:19;16.10;97.50
10451;DHT22;5273;51.290;6.918;2023-07-13T04:37:47;16.10;97.50
10451;DHT22;5273;51.290;6.918;2023-07-13T04:40:15;16.00;97.50
10451;DHT22;5273;51.290;6.918;2023-07-13T04:42:42;16.20;97.80
10451;DHT22;5273;51.290;6.918;2023-07-13T04:45:09;16.20;97.50
10451;DHT22;5273;51.290;6.918;2023-07-13T04:47:37;16.30;97.20
10451;DHT22;5273;51.290;6.918;2023-07-13T04:50:05;16.40;97.40
10451;DHT22;5273;51.290;6.918;2023-07-13T04:52:32;16.40;97.40
10451;DHT22;5273;51.290;6.918;2023-07-13T04:55:00;16.50;97.10
10451;DHT22;5273;51.290;6.918;2023-07-13T04:57:27;16.50;97.30
10451;DHT22;5273;51.290;6.918;2023-07-13T04:59:53;16.60;97.30
10451;DHT22;5273;51.290;6.918;2023-07-13T05:02:21;16.60;97.20
10451;DHT22;5273;51.290;6.918;2023-07-13T05:04:49;16.70;96.90
10451;DHT22;5273;51.290;6.918;2023-07-13T05:07:16;16.80;96.70
10451;DHT22;5273;51.290;6.918;2023-07-13T05:09:43;16.80;96.70
10451;DHT22;5273;51.290;6.918;2023-07-13T05:12:10;16.80;96.70
10451;DHT22;5273;51.290;6.918;2023-07-13T05:14:37;16.90;96.80
10451;DHT22;5273;51.290;6.918;2023-07-13T05:17:04;16.80;96.50
10451;DHT22;5273;51.290;6.918;2023-07-13T05:19:31;16.90;96.60
10451;DHT22;5273;51.290;6.918;2023-07-13T05:21:59;16.90;96.80
10451;DHT22;5273;51.290;6.918;2023-07-13T05:24:26;16.90;96.60
10451;DHT22;5273;51.290;6.918;2023-07-13T05:26:53;17.10;96.70
10451;DHT22;5273;51.290;6.918;2023-07-13T05:29:20;17.00;97.10
10451;DHT22;5273;51.290;6.918;2023-07-13T05:31:47;17.10;96.80
10451;DHT22;5273;51.290;6.918;2023-07-13T05:34:13;17.30;96.80
10451;DHT22;5273;51.290;6.918;2023-07-13T05:36:40;17.40;96.50
10451;DHT22;5273;51.290;6.918;2023-07-13T05:39:09;17.50;96.30
10451;DHT22;5273;51.290;6.918;2023-07-13T05:41:37;17.60;96.00
10451;DHT22;5273;51.290;6.918;2023-07-13T05:44:04;17.70;95.80
10451;DHT22;5273;51.290;6.918;2023-07-13T05:46:30;17.70;95.30
10451;DHT22;5273;51.290;6.918;2023-07-13T05:48:57;17.80;95.50
10451;DHT22;5273;51.290;6.918;2023-07-13T05:51:24;17.70;95.50
10451;DHT22;5273;51.290;6.918;2023-07-13T05:53:51;17.80;95.80
10451;DHT22;5273;51.290;6.918;2023-07-13T05:56:19;17.80;95.70
10451;DHT22;5273;51.290;6.918;2023-07-13T05:58:47;17.80;95.90
10451;DHT22;5273;51.290;6.918;2023-07-13T06:01:15;17.90;95.60
10451;DHT22;5273;51.290;6.918;2023-07-13T06:03:42;18.00;95.70
10451;DHT22;5273;51.290;6.918;2023-07-13T06:06:10;18.10;95.70
10451;DHT22;5273;51.290;6.918;2023-07-13T06:08:37;18.20;95.50
10451;DHT22;5273;51.290;6.918;2023-07-13T06:11:05;18.40;95.40
10451;DHT22;5273;51.290;6.918;2023-07-13T06:13:33;18.60;95.10
10451;DHT22;5273;51.290;6.918;2023-07-13T06:16:01;19.00;94.60
10451;DHT22;5273;51.290;6.918;2023-07-13T06:18:30;19.20;94.10
10451;DHT22;5273;51.290;6.918;2023-07-13T06:20:57;19.60;93.30
10451;DHT22;5273;51.290;6.918;2023-07-13T06:23:24;19.90;92.70
10451;DHT22;5273;51.290;6.918;2023-07-13T06:25:51;20.20;92.40
10451;DHT22;5273;51.290;6.918;2023-07-13T06:28:18;20.50;91.70
10451;DHT22;5273;51.290;6.918;2023-07-13T06:30:47;20.90;91.00
10451;DHT22;5273;51.290;6.918;2023-07-13T06:33:13;21.20;90.50
10451;DHT22;5273;51.290;6.918;2023-07-13T06:35:40;21.40;89.30
10451;DHT22;5273;51.290;6.918;2023-07-13T06:38:07;21.40;89.40
10451;DHT22;5273;51.290;6.918;2023-07-13T06:40:34;21.60;88.80
10451;DHT22;5273;51.290;6.918;2023-07-13T06:43:01;21.80;87.80
10451;DHT22;5273;51.290;6.918;2023-07-13T06:45:27;22.30;85.80
10451;DHT22;5273;51.290;6.918;2023-07-13T06:47:55;22.70;84.10
10451;DHT22;5273;51.290;6.918;2023-07-13T06:50:22;22.80;84.20
10451;DHT22;5273;51.290;6.918;2023-07-13T06:52:49;23.40;81.60
10451;DHT22;5273;51.290;6.918;2023-07-13T06:55:16;23.90;80.70
10451;DHT22;5273;51.290;6.918;2023-07-13T06:57:43;24.70;78.40
10451;DHT22;5273;51.290;6.918;2023-07-13T07:00:11;25.30;75.70
10451;DHT22;5273;51.290;6.918;2023-07-13T07:02:38;26.00;71.80
10451;DHT22;5273;51.290;6.918;2023-07-13T07:05:06;26.20;70.20
10451;DHT22;5273;51.290;6.918;2023-07-13T07:07:33;26.10;70.10
10451;DHT22;5273;51.290;6.918;2023-07-13T07:10:00;25.70;69.00
10451;DHT22;5273;51.290;6.918;2023-07-13T07:12:27;25.30;69.80
10451;DHT22;5273;51.290;6.918;2023-07-13T07:14:54;24.90;70.90
10451;DHT22;5273;51.290;6.918;2023-07-13T07:17:21;24.70;72.10
10451;DHT22;5273;51.290;6.918;2023-07-13T07:19:48;24.80;73.10
10451;DHT22;5273;51.290;6.918;2023-07-13T07:22:16;25.00;71.00
10451;DHT22;5273;51.290;6.918;2023-07-13T07:24:43;25.10;70.60
10451;DHT22;5273;51.290;6.918;2023-07-13T07:27:09;25.00;71.00
10451;DHT22;5273;51.290;6.918;2023-07-13T07:29:36;24.90;72.00
10451;DHT22;5273;51.290;6.918;2023-07-13T07:32:04;24.70;72.10
10451;DHT22;5273;51.290;6.918;2023-07-13T07:34:31;24.70;72.10
10451;DHT22;5273;51.290;6.918;2023-07-13T07:37:00;24.70;72.00
10451;DHT22;5273;51.290;6.918;2023-07-13T07:39:29;24.70;72.40
10451;DHT22;5273;51.290;6.918;2023-07-13T07:41:56;24.70;71.20
10451;DHT22;5273;51.290;6.918;2023-07-13T07:44:22;24.90;70.90
10451;DHT22;5273;51.290;6.918;2023-07-13T07:46:49;24.90;70.90
10451;DHT22;5273;51.290;6.918;2023-07-13T07:49:16;24.90;70.80
10451;DHT22;5273;51.290;6.918;2023-07-13T07:51:43;24.70;70.70
10451;DHT22;5273;51.290;6.918;2023-07-13T07:54:10;24.50;71.00
10451;DHT22;5273;51.290;6.918;2023-07-13T07:56:39;24.60;73.00
10451;DHT22;5273;51.290;6.918;2023-07-13T07:59:06;25.20;71.50
10451;DHT22;5273;51.290;6.918;2023-07-13T08:01:32;25.50;68.20
10451;DHT22;5273;51.290;6.918;2023-07-13T08:03:59;25.40;68.10
10451;DHT22;5273;51.290;6.918;2023-07-13T08:06:26;25.50;68.70
10451;DHT22;5273;51.290;6.918;2023-07-13T08:08:53;25.70;66.10
10451;DHT22;5273;51.290;6.918;2023-07-13T08:11:20;25.40;67.20
10451;DHT22;5273;51.290;6.918;2023-07-13T08:13:49;25.30;68.30
10451;DHT22;5273;51.290;6.918;2023-07-13T08:16:16;25.80;68.70
10451;DHT22;5273;51.290;6.918;2023-07-13T08:18:43;26.30;66.90
10451;DHT22;5273;51.290;6.918;2023-07-13T08:21:10;27.20;64.30
10451;DHT22;5273;51.290;6.918;2023-07-13T08:23:37;28.10;61.40
10451;DHT22;5273;51.290;6.918;2023-07-13T08:26:04;29.10;58.70
10451;DHT22;5273;51.290;6.918;2023-07-13T08:28:31;29.80;56.20
10451;DHT22;5273;51.290;6.918;2023-07-13T08:31:02;30.70;54.90
10451;DHT22;5273;51.290;6.918;2023-07-13T08:33:29;31.00;52.20
10451;DHT22;5273;51.290;6.918;2023-07-13T08:35:56;31.00;52.10
10451;DHT22;5273;51.290;6.918;2023-07-13T08:38:23;31.30;51.50
10451;DHT22;5273;51.290;6.918;2023-07-13T08:40:52;31.70;51.20
10451;DHT22;5273;51.290;6.918;2023-07-13T08:43:23;32.00;49.30
10451;DHT22;5273;51.290;6.918;2023-07-13T08:45:56;32.00;48.70
10451;DHT22;5273;51.290;6.918;2023-07-13T08:48:30;32.30;49.70
10451;DHT22;5273;51.290;6.918;2023-07-13T08:50:58;32.60;47.50
10451;DHT22;5273;51.290;6.918;2023-07-13T08:53:32;32.50;47.50
10451;DHT22;5273;51.290;6.918;2023-07-13T08:56:01;32.30;47.30
10451;DHT22;5273;51.290;6.918;2023-07-13T08:58:29;31.90;47.80
10451;DHT22;5273;51.290;6.918;2023-07-13T09:01:02;31.80;48.20
10451;DHT22;5273;51.290;6.918;2023-07-13T09:03:37;31.40;47.60
10451;DHT22;5273;51.290;6.918;2023-07-13T09:06:06;30.90;49.60
10451;DHT22;5273;51.290;6.918;2023-07-13T09:08:46;30.30;50.20
10451;DHT22;5273;51.290;6.918;2023-07-13T09:11:32;30.00;51.50
10451;DHT22;5273;51.290;6.918;2023-07-13T09:14:10;29.90;52.20
10451;DHT22;5273;51.290;6.918;2023-07-13T09:16:43;30.50;51.20
10451;DHT22;5273;51.290;6.918;2023-07-13T09:19:21;30.60;50.40
10451;DHT22;5273;51.290;6.918;2023-07-13T09:21:51;30.60;49.70
10451;DHT22;5273;51.290;6.918;2023-07-13T09:24:29;30.40;50.70
10451;DHT22;5273;51.290;6.918;2023-07-13T09:26:57;30.20;51.30
10451;DHT22;5273;51.290;6.918;2023-07-13T09:29:28;30.10;51.60
10451;DHT22;5273;51.290;6.918;2023-07-13T09:31:58;29.90;51.40
10451;DHT22;5273;51.290;6.918;2023-07-13T09:34:29;29.90;52.00
10451;DHT22;5273;51.290;6.918;2023-07-13T09:36:56;29.80;51.10
10451;DHT22;5273;51.290;6.918;2023-07-13T09:39:26;29.40;51.60
10451;DHT22;5273;51.290;6.918;2023-07-13T09:42:03;29.00;52.50
10451;DHT22;5273;51.290;6.918;2023-07-13T09:44:35;28.70;52.50
10451;DHT22;5273;51.290;6.918;2023-07-13T09:47:02;28.40;53.30
10451;DHT22;5273;51.290;6.918;2023-07-13T09:49:34;28.40;53.70
10451;DHT22;5273;51.290;6.918;2023-07-13T09:52:05;28.30;54.30
10451;DHT22;5273;51.290;6.918;2023-07-13T09:54:34;28.00;54.50
10451;DHT22;5273;51.290;6.918;2023-07-13T09:57:02;27.80;54.60
10451;DHT22;5273;51.290;6.918;2023-07-13T09:59:31;27.60;55.00
10451;DHT22;5273;51.290;6.918;2023-07-13T10:01:58;27.50;55.90
10451;DHT22;5273;51.290;6.918;2023-07-13T10:04:31;27.80;56.30
10451;DHT22;5273;51.290;6.918;2023-07-13T10:07:06;28.30;54.90
10451;DHT22;5273;51.290;6.918;2023-07-13T10:09:33;28.70;54.20
10451;DHT22;5273;51.290;6.918;2023-07-13T10:12:00;29.10;53.20
10451;DHT22;5273;51.290;6.918;2023-07-13T10:14:29;29.20;51.30
10451;DHT22;5273;51.290;6.918;2023-07-13T10:16:59;29.40;51.40
10451;DHT22;5273;51.290;6.918;2023-07-13T10:19:31;29.70;50.60
10451;DHT22;5273;51.290;6.918;2023-07-13T10:22:00;29.90;50.20
10451;DHT22;5273;51.290;6.918;2023-07-13T10:24:32;30.10;49.60
10451;DHT22;5273;51.290;6.918;2023-07-13T10:27:05;30.00;49.30
10451;DHT22;5273;51.290;6.918;2023-07-13T10:29:46;29.80;50.70
10451;DHT22;5273;51.290;6.918;2023-07-13T10:32:14;29.80;50.10
10451;DHT22;5273;51.290;6.918;2023-07-13T10:34:44;29.70;49.60
10451;DHT22;5273;51.290;6.918;2023-07-13T10:37:18;29.80;49.40
10451;DHT22;5273;51.290;6.918;2023-07-13T10:39:47;30.40;48.80
10451;DHT22;5273;51.290;6.918;2023-07-13T10:42:25;30.60;48.00
10451;DHT22;5273;51.290;6.918;2023-07-13T10:44:53;30.30;47.70
10451;DHT22;5273;51.290;6.918;2023-07-13T10:47:20;30.00;47.90
10451;DHT22;5273;51.290;6.918;2023-07-13T10:49:55;29.80;49.20
10451;DHT22;5273;51.290;6.918;2023-07-13T10:52:42;29.80;49.60
10451;DHT22;5273;51.290;6.918;2023-07-13T10:55:34;30.00;48.70
10451;DHT22;5273;51.290;6.918;2023-07-13T10:58:03;30.10;49.80
10451;DHT22;5273;51.290;6.918;2023-07-13T11:00:46;29.90;48.70
10451;DHT22;5273;51.290;6.918;2023-07-13T11:03:17;29.60;48.30
10451;DHT22;5273;51.290;6.918;2023-07-13T11:05:48;29.00;49.70
10451;DHT22;5273;51.290;6.918;2023-07-13T11:08:20;28.80;50.40
10451;DHT22;5273;51.290;6.918;2023-07-13T11:10:54;28.60;51.70
10451;DHT22;5273;51.290;6.918;2023-07-13T11:13:38;28.40;53.00
10451;DHT22;5273;51.290;6.918;2023-07-13T11:16:38;28.40;52.20
10451;DHT22;5273;51.290;6.918;2023-07-13T11:22:16;28.20;52.20
10451;DHT22;5273;51.290;6.918;2023-07-13T11:24:59;28.10;52.70
10451;DHT22;5273;51.290;6.918;2023-07-13T11:27:39;27.90;52.70
10451;DHT22;5273;51.290;6.918;2023-07-13T11:30:21;27.80;52.90
10451;DHT22;5273;51.290;6.918;2023-07-13T11:33:03;27.80;52.70
10451;DHT22;5273;51.290;6.918;2023-07-13T11:35:35;27.90;52.90
10451;DHT22;5273;51.290;6.918;2023-07-13T11:38:12;28.10;52.90
10451;DHT22;5273;51.290;6.918;2023-07-13T11:40:41;28.20;53.60
10451;DHT22;5273;51.290;6.918;2023-07-13T11:43:13;28.30;52.10
10451;DHT22;5273;51.290;6.918;2023-07-13T11:45:41;28.20;50.80
10451;DHT22;5273;51.290;6.918;2023-07-13T11:48:19;28.20;51.00
10451;DHT22;5273;51.290;6.918;2023-07-13T11:50:54;28.20;50.80
10451;DHT22;5273;51.290;6.918;2023-07-13T11:53:22;28.30;50.90
10451;DHT22;5273;51.290;6.918;2023-07-13T11:55:49;28.30;51.70
10451;DHT22;5273;51.290;6.918;2023-07-13T11:58:23;28.50;51.50
10451;DHT22;5273;51.290;6.918;2023-07-13T12:00:51;28.60;51.10
10451;DHT22;5273;51.290;6.918;2023-07-13T12:03:21;28.60;49.80
10451;DHT22;5273;51.290;6.918;2023-07-13T12:05:57;28.50;51.00
10451;DHT22;5273;51.290;6.918;2023-07-13T12:08:24;28.60;51.00
10451;DHT22;5273;51.290;6.918;2023-07-13T12:11:00;28.60;50.50
10451;DHT22;5273;51.290;6.918;2023-07-13T12:13:36;28.60;48.90
10451;DHT22;5273;51.290;6.918;2023-07-13T12:16:12;28.60;49.50
10451;DHT22;5273;51.290;6.918;2023-07-13T12:18:39;28.40;49.00
10451;DHT22;5273;51.290;6.918;2023-07-13T12:21:13;28.30;49.30
10451;DHT22;5273;51.290;6.918;2023-07-13T12:23:43;28.10;49.70
10451;DHT22;5273;51.290;6.918;2023-07-13T12:26:11;28.20;50.10
10451;DHT22;5273;51.290;6.918;2023-07-13T12:28:47;28.10;49.70
10451;DHT22;5273;51.290;6.918;2023-07-13T12:31:29;27.80;49.40
10451;DHT22;5273;51.290;6.918;2023-07-13T12:33:58;27.50;50.20
10451;DHT22;5273;51.290;6.918;2023-07-13T12:36:25;27.40;50.90
10451;DHT22;5273;51.290;6.918;2023-07-13T12:38:52;27.20;51.30
10451;DHT22;5273;51.290;6.918;2023-07-13T12:41:19;27.20;52.10
10451;DHT22;5273;51.290;6.918;2023-07-13T12:43:50;27.00;51.10
10451;DHT22;5273;51.290;6.918;2023-07-13T12:46:19;26.90;50.50
10451;DHT22;5273;51.290;6.918;2023-07-13T12:48:50;26.80;50.20
10451;DHT22;5273;51.290;6.918;2023-07-13T12:51:21;26.80;51.10
10451;DHT22;5273;51.290;6.918;2023-07-13T12:53:51;26.80;51.50
10451;DHT22;5273;51.290;6.918;2023-07-13T12:56:23;26.90;51.20
10451;DHT22;5273;51.290;6.918;2023-07-13T12:58:57;26.80;49.70
10451;DHT22;5273;51.290;6.918;2023-07-13T13:01:27;26.70;49.90
10451;DHT22;5273;51.290;6.918;2023-07-13T13:03:54;26.70;48.80
10451;DHT22;5273;51.290;6.918;2023-07-13T13:06:24;26.50;49.00
10451;DHT22;5273;51.290;6.918;2023-07-13T13:08:53;26.30;49.90
10451;DHT22;5273;51.290;6.918;2023-07-13T13:11:21;26.30;50.80
10451;DHT22;5273;51.290;6.918;2023-07-13T13:13:49;26.30;51.40
10451;DHT22;5273;51.290;6.918;2023-07-13T13:16:22;26.30;50.80
10451;DHT22;5273;51.290;6.918;2023-07-13T13:18:51;26.20;51.30
10451;DHT22;5273;51.290;6.918;2023-07-13T13:21:20;26.10;51.30
10451;DHT22;5273;51.290;6.918;2023-07-13T13:23:47;26.00;51.60
10451;DHT22;5273;51.290;6.918;2023-07-13T13:26:15;26.00;52.20
10451;DHT22;5273;51.290;6.918;2023-07-13T13:28:43;25.90;52.30
10451;DHT22;5273;51.290;6.918;2023-07-13T13:31:11;25.90;52.30
10451;DHT22;5273;51.290;6.918;2023-07-13T13:33:42;25.80;52.70
10451;DHT22;5273;51.290;6.918;2023-07-13T13:36:15;25.80;53.20
10451;DHT22;5273;51.290;6.918;2023-07-13T13:38:43;25.80;54.20
10451;DHT22;5273;51.290;6.918;2023-07-13T13:41:10;26.00;53.30
10451;DHT22;5273;51.290;6.918;2023-07-13T13:43:39;26.10;52.60
10451;DHT22;5273;51.290;6.918;2023-07-13T13:46:13;26.20;52.40
10451;DHT22;5273;51.290;6.918;2023-07-13T13:48:43;26.20;51.90
10451;DHT22;5273;51.290;6.918;2023-07-13T13:51:16;26.10;52.00
10451;DHT22;5273;51.290;6.918;2023-07-13T13:53:43;25.90;52.60
10451;DHT22;5273;51.290;6.918;2023-07-13T13:56:11;25.60;53.60
10451;DHT22;5273;51.290;6.918;2023-07-13T13:58:37;25.40;53.80
10451;DHT22;5273;51.290;6.918;2023-07-13T14:01:05;25.20;54.30
10451;DHT22;5273;51.290;6.918;2023-07-13T14:03:34;25.10;55.80
10451;DHT22;5273;51.290;6.918;2023-07-13T14:06:02;25.10;56.30
10451;DHT22;5273;51.290;6.918;2023-07-13T14:08:29;25.20;56.10
10451;DHT22;5273;51.290;6.918;2023-07-13T14:10:57;25.30;55.80
10451;DHT22;5273;51.290;6.918;2023-07-13T14:13:27;25.40;55.80
10451;DHT22;5273;51.290;6.918;2023-07-13T14:15:54;25.40;56.00
10451;DHT22;5273;51.290;6.918;2023-07-13T14:18:21;25.80;53.10
10451;DHT22;5273;51.290;6.918;2023-07-13T14:20:49;25.90;52.10
10451;DHT22;5273;51.290;6.918;2023-07-13T14:23:19;26.00;50.20
10451;DHT22;5273;51.290;6.918;2023-07-13T14:25:46;26.20;50.80
10451;DHT22;5273;51.290;6.918;2023-07-13T14:28:20;26.30;50.50
10451;DHT22;5273;51.290;6.918;2023-07-13T14:30:48;26.40;50.40
10451;DHT22;5273;51.290;6.918;2023-07-13T14:33:16;26.60;50.70
10451;DHT22;5273;51.290;6.918;2023-07-13T14:35:43;26.60;51.10
10451;DHT22;5273;51.290;6.918;2023-07-13T14:38:12;26.70;51.80
10451;DHT22;5273;51.290;6.918;2023-07-13T14:40:41;26.70;51.40
10451;DHT22;5273;51.290;6.918;2023-07-13T14:43:10;26.60;51.50
10451;DHT22;5273;51.290;6.918;2023-07-13T14:45:40;26.40;51.70
10451;DHT22;5273;51.290;6.918;2023-07-13T14:48:15;26.30;52.00
10451;DHT22;5273;51.290;6.918;2023-07-13T14:50:43;26.30;53.10
10451;DHT22;5273;51.290;6.918;2023-07-13T14:53:11;26.10;52.90
10451;DHT22;5273;51.290;6.918;2023-07-13T14:55:38;26.00;53.40
10451;DHT22;5273;51.290;6.918;2023-07-13T14:58:07;25.90;54.30
10451;DHT22;5273;51.290;6.918;2023-07-13T15:00:34;25.90;54.60
10451;DHT22;5273;51.290;6.918;2023-07-13T15:03:01;25.80;53.90
10451;DHT22;5273;51.290;6.918;2023-07-13T15:05:30;25.70;54.40
10451;DHT22;5273;51.290;6.918;2023-07-13T15:07:59;25.60;55.10
10451;DHT22;5273;51.290;6.918;2023-07-13T15:10:28;25.60;54.80
10451;DHT22;5273;51.290;6.918;2023-07-13T15:12:58;25.60;54.90
10451;DHT22;5273;51.290;6.918;2023-07-13T15:15:27;25.40;55.00
10451;DHT22;5273;51.290;6.918;2023-07-13T15:17:55;25.30;55.60
10451;DHT22;5273;51.290;6.918;2023-07-13T15:20:26;25.10;56.00
10451;DHT22;5273;51.290;6.918;2023-07-13T15:22:54;24.80;55.50
10451;DHT22;5273;51.290;6.918;2023-07-13T15:25:23;24.60;56.10
10451;DHT22;5273;51.290;6.918;2023-07-13T15:27:51;24.50;56.60
10451;DHT22;5273;51.290;6.918;2023-07-13T15:30:18;24.30;56.30
10451;DHT22;5273;51.290;6.918;2023-07-13T15:32:47;24.30;56.80
10451;DHT22;5273;51.290;6.918;2023-07-13T15:35:16;24.20;57.70
10451;DHT22;5273;51.290;6.918;2023-07-13T15:37:43;24.10;56.50
10451;DHT22;5273;51.290;6.918;2023-07-13T15:40:11;24.00;56.20
10451;DHT22;5273;51.290;6.918;2023-07-13T15:42:39;23.90;55.90
10451;DHT22;5273;51.290;6.918;2023-07-13T15:45:25;23.80;56.50
10451;DHT22;5273;51.290;6.918;2023-07-13T15:47:53;23.70;57.60
10451;DHT22;5273;51.290;6.918;2023-07-13T15:50:22;23.70;58.10
10451;DHT22;5273;51.290;6.918;2023-07-13T15:52:52;23.60;58.20
10451;DHT22;5273;51.290;6.918;2023-07-13T15:55:19;23.60;58.60
10451;DHT22;5273;51.290;6.918;2023-07-13T15:57:48;23.60;59.30
10451;DHT22;5273;51.290;6.918;2023-07-13T16:00:21;23.50;59.30